sensor_id;sensor_type;location;lat;lon;timestamp;temperature;humidity
32877;DHT22;19226;51.600;8.034;2023-10-09T00:02:26;15.00;99.90
32877;DHT22;19226;51.600;8.034;2023-10-09T00:05:11;15.10;99.90
32877;DHT22;19226;51.600;8.034;2023-10-09T00:07:59;15.10;99.90
32877;DHT22;19226;51.600;8.034;2023-10-09T00:10:48;15.20;99.90
32877;DHT22;19226;51.600;8.034;2023-10-09T00:13:37;15.20;99.90
32877;DHT22;19226;51.600;8.034;2023-10-09T00:16:22;15.20;99.90
32877;DHT22;19226;51.600;8.034;2023-10-09T00:19:19;15.20;99.90
32877;DHT22;19226;51.600;8.034;2023-10-09T00:22:03;15.30;99.90
32877;DHT22;19226;51.600;8.034;2023-10-09T00:25:10;15.30;99.90
32877;DHT22;19226;51.600;8.034;2023-10-09T00:28:06;15.30;99.90
32877;DHT22;19226;51.600;8.034;2023-10-09T00:30:50;15.30;99.90
32877;DHT22;19226;51.600;8.034;2023-10-09T00:33:36;15.40;99.90
32877;DHT22;19226;51.600;8.034;2023-10-09T00:36:21;15.40;99.90
32877;DHT22;19226;51.600;8.034;2023-10-09T00:39:11;15.40;99.90
32877;DHT22;19226;51.600;8.034;2023-10-09T00:42:04;15.50;99.90
32877;DHT22;19226;51.600;8.034;2023-10-09T00:44:50;15.50;99.90
32877;DHT22;19226;51.600;8.034;2023-10-09T00:47:35;15.60;99.90
32877;DHT22;19226;51.600;8.034;2023-10-09T00:50:25;15.60;99.90
32877;DHT22;19226;51.600;8.034;2023-10-09T00:53:10;15.70;99.90
32877;DHT22;19226;51.600;8.034;2023-10-09T00:56:02;15.70;99.90
32877;DHT22;19226;51.600;8.034;2023-10-09T00:59:13;15.70;99.90
32877;DHT22;19226;51.600;8.034;2023-10-09T01:02:04;15.70;99.90
32877;DHT22;19226;51.600;8.034;2023-10-09T01:04:49;15.80;99.90
32877;DHT22;19226;51.600;8.034;2023-10-09T01:07:34;15.80;99.90
32877;DHT22;19226;51.600;8.034;2023-10-09T01:10:19;15.90;99.90
32877;DHT22;19226;51.600;8.034;2023-10-09T01:13:03;15.90;99.90
32877;DHT22;19226;51.600;8.034;2023-10-09T01:15:48;15.90;99.90
32877;DHT22;19226;51.600;8.034;2023-10-09T01:18:33;15.90;99.90
32877;DHT22;19226;51.600;8.034;2023-10-09T01:21:22;15.90;99.90
32877;DHT22;19226;51.600;8.034;2023-10-09T01:24:16;15.90;99.90
32877;DHT22;19226;51.600;8.034;2023-10-09T01:27:00;15.90;99.90
32877;DHT22;19226;51.600;8.034;2023-10-09T01:29:45;16.00;99.90
32877;DHT22;19226;51.600;8.034;2023-10-09T01:32:30;16.00;99.90
32877;DHT22;19226;51.600;8.034;2023-10-09T01:35:15;16.10;99.90
32877;DHT22;19226;51.600;8.034;2023-10-09T01:38:05;16.10;99.90
32877;DHT22;19226;51.600;8.034;2023-10-09T01:40:57;16.20;99.90
32877;DHT22;19226;51.600;8.034;2023-10-09T01:43:51;16.20;99.90
32877;DHT22;19226;51.600;8.034;2023-10-09T01:46:41;16.30;99.90
32877;DHT22;19226;51.600;8.034;2023-10-09T01:49:25;16.30;99.90
32877;DHT22;19226;51.600;8.034;2023-10-09T01:52:16;16.40;99.90
32877;DHT22;19226;51.600;8.034;2023-10-09T01:55:01;16.40;99.90
32877;DHT22;19226;51.600;8.034;2023-10-09T01:58:06;16.40;99.90
32877;DHT22;19226;51.600;8.034;2023-10-09T02:01:01;16.40;99.90
32877;DHT22;19226;51.600;8.034;2023-10-09T02:03:49;16.50;99.90
32877;DHT22;19226;51.600;8.034;2023-10-09T02:06:36;16.50;99.90
32877;DHT22;19226;51.600;8.034;2023-10-09T02:09:22;16.50;99.90
32877;DHT22;19226;51.600;8.034;2023-10-09T02:12:14;16.50;99.90
32877;DHT22;19226;51.600;8.034;2023-10-09T02:14:59;16.60;99.90
32877;DHT22;19226;51.600;8.034;2023-10-09T02:17:50;16.60;99.90
32877;DHT22;19226;51.600;8.034;2023-10-09T02:20:45;16.60;99.90
32877;DHT22;19226;51.600;8.034;2023-10-09T02:23:35;16.60;99.90
32877;DHT22;19226;51.600;8.034;2023-10-09T02:26:28;16.60;99.90
32877;DHT22;19226;51.600;8.034;2023-10-09T02:29:36;16.60;99.90
32877;DHT22;19226;51.600;8.034;2023-10-09T02:32:22;16.70;99.90
32877;DHT22;19226;51.600;8.034;2023-10-09T02:35:10;16.70;99.90
32877;DHT22;19226;51.600;8.034;2023-10-09T02:38:05;16.70;99.90
32877;DHT22;19226;51.600;8.034;2023-10-09T02:40:55;16.80;99.90
32877;DHT22;19226;51.600;8.034;2023-10-09T02:43:49;16.80;99.90
32877;DHT22;19226;51.600;8.034;2023-10-09T02:46:39;16.80;99.90
32877;DHT22;19226;51.600;8.034;2023-10-09T02:49:26;16.80;99.90
32877;DHT22;19226;51.600;8.034;2023-10-09T02:52:11;16.90;99.90
32877;DHT22;19226;51.600;8.034;2023-10-09T02:54:58;16.90;99.90
32877;DHT22;19226;51.600;8.034;2023-10-09T02:57:52;16.90;99.90
32877;DHT22;19226;51.600;8.034;2023-10-09T03:00:49;16.90;99.90
32877;DHT22;19226;51.600;8.034;2023-10-09T03:03:35;16.90;99.90
32877;DHT22;19226;51.600;8.034;2023-10-09T03:06:22;16.90;99.90
32877;DHT22;19226;51.600;8.034;2023-10-09T03:09:18;16.90;99.90
32877;DHT22;19226;51.600;8.034;2023-10-09T03:12:04;16.90;99.90
32877;DHT22;19226;51.600;8.034;2023-10-09T03:14:50;17.00;99.90
32877;DHT22;19226;51.600;8.034;2023-10-09T03:17:35;17.00;99.90
32877;DHT22;19226;51.600;8.034;2023-10-09T03:20:19;17.00;99.90
32877;DHT22;19226;51.600;8.034;2023-10-09T03:23:04;17.00;99.90
32877;DHT22;19226;51.600;8.034;2023-10-09T03:25:51;17.00;99.90
32877;DHT22;19226;51.600;8.034;2023-10-09T03:28:36;17.00;99.90
32877;DHT22;19226;51.600;8.034;2023-10-09T03:31:21;17.00;99.90
32877;DHT22;19226;51.600;8.034;2023-10-09T03:34:06;17.00;99.90
32877;DHT22;19226;51.600;8.034;2023-10-09T03:36:54;17.00;99.90
32877;DHT22;19226;51.600;8.034;2023-10-09T03:39:48;17.00;99.90
32877;DHT22;19226;51.600;8.034;2023-10-09T03:42:35;17.00;99.90
32877;DHT22;19226;51.600;8.034;2023-10-09T03:45:21;17.00;99.90
32877;DHT22;19226;51.600;8.034;2023-10-09T03:48:19;17.00;99.90
32877;DHT22;19226;51.600;8.034;2023-10-09T03:51:10;17.00;99.90
32877;DHT22;19226;51.600;8.034;2023-10-09T03:54:06;17.00;99.90
32877;DHT22;19226;51.600;8.034;2023-10-09T03:56:53;17.00;99.90
32877;DHT22;19226;51.600;8.034;2023-10-09T03:59:39;17.00;99.90
32877;DHT22;19226;51.600;8.034;2023-10-09T04:02:24;17.00;99.90
32877;DHT22;19226;51.600;8.034;2023-10-09T04:05:08;17.00;99.90
32877;DHT22;19226;51.600;8.034;2023-10-09T04:07:55;17.00;99.90
32877;DHT22;19226;51.600;8.034;2023-10-09T04:10:43;17.00;99.90
32877;DHT22;19226;51.600;8.034;2023-10-09T04:13:28;16.90;99.90
32877;DHT22;19226;51.600;8.034;2023-10-09T04:16:19;17.00;99.90
32877;DHT22;19226;51.600;8.034;2023-10-09T04:19:12;17.00;99.90
32877;DHT22;19226;51.600;8.034;2023-10-09T04:21:57;17.00;99.90
32877;DHT22;19226;51.600;8.034;2023-10-09T04:24:42;17.00;99.90
32877;DHT22;19226;51.600;8.034;2023-10-09T04:27:32;17.00;99.90
32877;DHT22;19226;51.600;8.034;2023-10-09T04:30:20;17.00;99.90
32877;DHT22;19226;51.600;8.034;2023-10-09T04:33:10;17.00;99.90
32877;DHT22;19226;51.600;8.034;2023-10-09T04:36:24;17.10;99.90
32877;DHT22;19226;51.600;8.034;2023-10-09T04:39:12;17.10;99.90
32877;DHT22;19226;51.600;8.034;2023-10-09T04:41:58;17.10;99.90
32877;DHT22;19226;51.600;8.034;2023-10-09T04:45:02;17.00;99.90
32877;DHT22;19226;51.600;8.034;2023-10-09T04:47:46;17.10;99.90
32877;DHT22;19226;51.600;8.034;2023-10-09T04:50:34;17.10;99.90
32877;DHT22;19226;51.600;8.034;2023-10-09T04:53:18;17.10;99.90
32877;DHT22;19226;51.600;8.034;2023-10-09T04:56:03;17.10;99.90
32877;DHT22;19226;51.600;8.034;2023-10-09T04:58:49;17.10;99.90
32877;DHT22;19226;51.600;8.034;2023-10-09T05:01:47;17.20;99.90
32877;DHT22;19226;51.600;8.034;2023-10-09T05:04:42;17.10;99.90
32877;DHT22;19226;51.600;8.034;2023-10-09T05:07:27;17.20;99.90
32877;DHT22;19226;51.600;8.034;2023-10-09T05:10:30;17.20;99.90
32877;DHT22;19226;51.600;8.034;2023-10-09T05:13:16;17.20;99.90
32877;DHT22;19226;51.600;8.034;2023-10-09T05:16:20;17.20;99.90
32877;DHT22;19226;51.600;8.034;2023-10-09T05:19:12;17.20;99.90
32877;DHT22;19226;51.600;8.034;2023-10-09T05:22:17;17.20;99.90
32877;DHT22;19226;51.600;8.034;2023-10-09T05:25:13;17.20;99.90
32877;DHT22;19226;51.600;8.034;2023-10-09T05:28:21;17.20;99.90
32877;DHT22;19226;51.600;8.034;2023-10-09T05:31:15;17.20;99.90
32877;DHT22;19226;51.600;8.034;2023-10-09T05:34:29;17.20;99.90
32877;DHT22;19226;51.600;8.034;2023-10-09T05:37:33;17.20;99.90
32877;DHT22;19226;51.600;8.034;2023-10-09T05:40:18;17.20;99.90
32877;DHT22;19226;51.600;8.034;2023-10-09T05:43:03;17.20;99.90
32877;DHT22;19226;51.600;8.034;2023-10-09T05:45:49;17.20;99.90
32877;DHT22;19226;51.600;8.034;2023-10-09T05:48:52;17.20;99.90
32877;DHT22;19226;51.600;8.034;2023-10-09T05:51:38;17.20;99.90
32877;DHT22;19226;51.600;8.034;2023-10-09T05:54:26;17.20;99.90
32877;DHT22;19226;51.600;8.034;2023-10-09T05:57:29;17.20;99.90
32877;DHT22;19226;51.600;8.034;2023-10-09T06:00:33;17.20;99.90
32877;DHT22;19226;51.600;8.034;2023-10-09T06:03:36;17.20;99.90
32877;DHT22;19226;51.600;8.034;2023-10-09T06:06:38;17.20;99.90
32877;DHT22;19226;51.600;8.034;2023-10-09T06:09:40;17.20;99.90
32877;DHT22;19226;51.600;8.034;2023-10-09T06:12:33;17.20;99.90
32877;DHT22;19226;51.600;8.034;2023-10-09T06:15:37;17.10;99.90
32877;DHT22;19226;51.600;8.034;2023-10-09T06:18:28;17.20;99.90
32877;DHT22;19226;51.600;8.034;2023-10-09T06:21:18;17.10;99.90
32877;DHT22;19226;51.600;8.034;2023-10-09T06:24:23;17.10;99.90
32877;DHT22;19226;51.600;8.034;2023-10-09T06:27:07;17.20;99.90
32877;DHT22;19226;51.600;8.034;2023-10-09T06:29:58;17.20;99.90
32877;DHT22;19226;51.600;8.034;2023-10-09T06:33:02;17.20;99.90
32877;DHT22;19226;51.600;8.034;2023-10-09T06:35:46;17.20;99.90
32877;DHT22;19226;51.600;8.034;2023-10-09T06:38:40;17.20;99.90
32877;DHT22;19226;51.600;8.034;2023-10-09T06:41:45;17.20;99.90
32877;DHT22;19226;51.600;8.034;2023-10-09T06:44:43;17.20;99.90
32877;DHT22;19226;51.600;8.034;2023-10-09T06:47:37;17.20;99.90
32877;DHT22;19226;51.600;8.034;2023-10-09T06:50:37;17.20;99.90
32877;DHT22;19226;51.600;8.034;2023-10-09T06:53:40;17.20;99.90
32877;DHT22;19226;51.600;8.034;2023-10-09T06:56:39;17.20;99.90
32877;DHT22;19226;51.600;8.034;2023-10-09T06:59:24;17.20;99.90
32877;DHT22;19226;51.600;8.034;2023-10-09T07:02:09;17.30;99.90
32877;DHT22;19226;51.600;8.034;2023-10-09T07:04:53;17.30;99.90
32877;DHT22;19226;51.600;8.034;2023-10-09T07:07:39;17.30;99.90
32877;DHT22;19226;51.600;8.034;2023-10-09T07:10:35;17.30;99.90
32877;DHT22;19226;51.600;8.034;2023-10-09T07:13:26;17.30;99.90
32877;DHT22;19226;51.600;8.034;2023-10-09T07:16:11;17.30;99.90
32877;DHT22;19226;51.600;8.034;2023-10-09T07:19:22;17.30;99.90
32877;DHT22;19226;51.600;8.034;2023-10-09T07:22:19;17.30;99.90
32877;DHT22;19226;51.600;8.034;2023-10-09T07:25:06;17.30;99.90
32877;DHT22;19226;51.600;8.034;2023-10-09T07:28:12;17.40;99.90
32877;DHT22;19226;51.600;8.034;2023-10-09T07:31:20;17.40;99.90
32877;DHT22;19226;51.600;8.034;2023-10-09T07:34:12;17.50;99.90
32877;DHT22;19226;51.600;8.034;2023-10-09T07:37:17;17.50;99.90
32877;DHT22;19226;51.600;8.034;2023-10-09T07:40:03;17.50;99.90
32877;DHT22;19226;51.600;8.034;2023-10-09T07:42:51;17.50;99.90
32877;DHT22;19226;51.600;8.034;2023-10-09T07:45:40;17.50;99.90
32877;DHT22;19226;51.600;8.034;2023-10-09T07:48:42;17.50;99.90
32877;DHT22;19226;51.600;8.034;2023-10-09T07:51:37;17.60;99.90
32877;DHT22;19226;51.600;8.034;2023-10-09T07:54:22;17.60;99.90
32877;DHT22;19226;51.600;8.034;2023-10-09T07:57:22;17.60;99.90
32877;DHT22;19226;51.600;8.034;2023-10-09T08:00:13;17.70;99.90
32877;DHT22;19226;51.600;8.034;2023-10-09T08:03:20;17.70;99.90
32877;DHT22;19226;51.600;8.034;2023-10-09T08:06:07;17.70;99.90
32877;DHT22;19226;51.600;8.034;2023-10-09T08:09:12;17.80;99.90
32877;DHT22;19226;51.600;8.034;2023-10-09T08:11:56;17.70;99.90
32877;DHT22;19226;51.600;8.034;2023-10-09T08:14:59;17.80;99.90
32877;DHT22;19226;51.600;8.034;2023-10-09T08:18:04;17.70;99.90
32877;DHT22;19226;51.600;8.034;2023-10-09T08:20:54;17.80;99.90
32877;DHT22;19226;51.600;8.034;2023-10-09T08:23:41;17.80;99.90
32877;DHT22;19226;51.600;8.034;2023-10-09T08:26:36;17.80;99.90
32877;DHT22;19226;51.600;8.034;2023-10-09T08:29:31;17.80;99.90
32877;DHT22;19226;51.600;8.034;2023-10-09T08:32:18;17.80;99.90
32877;DHT22;19226;51.600;8.034;2023-10-09T08:35:22;17.80;99.90
32877;DHT22;19226;51.600;8.034;2023-10-09T08:38:18;17.80;99.90
32877;DHT22;19226;51.600;8.034;2023-10-09T08:41:12;17.80;99.90
32877;DHT22;19226;51.600;8.034;2023-10-09T08:44:01;17.90;99.90
32877;DHT22;19226;51.600;8.034;2023-10-09T08:46:48;17.90;99.90
32877;DHT22;19226;51.600;8.034;2023-10-09T08:49:34;17.90;99.90
32877;DHT22;19226;51.600;8.034;2023-10-09T08:52:19;17.90;99.90
32877;DHT22;19226;51.600;8.034;2023-10-09T08:55:04;17.90;99.90
32877;DHT22;19226;51.600;8.034;2023-10-09T08:57:51;17.90;99.90
32877;DHT22;19226;51.600;8.034;2023-10-09T09:00:39;17.90;99.90
32877;DHT22;19226;51.600;8.034;2023-10-09T09:03:37;17.90;99.90
32877;DHT22;19226;51.600;8.034;2023-10-09T09:06:22;18.00;99.90
32877;DHT22;19226;51.600;8.034;2023-10-09T09:09:13;18.00;99.90
32877;DHT22;19226;51.600;8.034;2023-10-09T09:11:58;18.00;99.90
32877;DHT22;19226;51.600;8.034;2023-10-09T09:14:44;18.10;99.90
32877;DHT22;19226;51.600;8.034;2023-10-09T09:17:35;18.10;99.90
32877;DHT22;19226;51.600;8.034;2023-10-09T09:20:25;18.10;99.90
32877;DHT22;19226;51.600;8.034;2023-10-09T09:23:19;18.10;99.90
32877;DHT22;19226;51.600;8.034;2023-10-09T09:26:08;18.20;99.90
32877;DHT22;19226;51.600;8.034;2023-10-09T09:28:55;18.20;99.90
32877;DHT22;19226;51.600;8.034;2023-10-09T09:31:52;18.20;99.90
32877;DHT22;19226;51.600;8.034;2023-10-09T09:34:47;18.20;99.90
32877;DHT22;19226;51.600;8.034;2023-10-09T09:37:34;18.30;99.90
32877;DHT22;19226;51.600;8.034;2023-10-09T09:40:27;18.20;99.90
32877;DHT22;19226;51.600;8.034;2023-10-09T09:43:14;18.30;99.90
32877;DHT22;19226;51.600;8.034;2023-10-09T09:46:07;18.30;99.90
32877;DHT22;19226;51.600;8.034;2023-10-09T09:48:53;18.40;99.90
32877;DHT22;19226;51.600;8.034;2023-10-09T09:51:38;18.40;99.90
32877;DHT22;19226;51.600;8.034;2023-10-09T09:54:27;18.40;99.90
32877;DHT22;19226;51.600;8.034;2023-10-09T09:57:13;18.50;99.90
32877;DHT22;19226;51.600;8.034;2023-10-09T09:59:59;18.50;99.90
32877;DHT22;19226;51.600;8.034;2023-10-09T10:03:07;18.60;99.90
32877;DHT22;19226;51.600;8.034;2023-10-09T10:05:54;18.70;99.90
32877;DHT22;19226;51.600;8.034;2023-10-09T10:08:44;18.70;99.90
32877;DHT22;19226;51.600;8.034;2023-10-09T10:14:54;18.90;99.90
32877;DHT22;19226;51.600;8.034;2023-10-09T10:24:01;19.20;99.90
32877;DHT22;19226;51.600;8.034;2023-10-09T10:32:56;19.50;99.90
32877;DHT22;19226;51.600;8.034;2023-10-09T10:35:42;19.50;99.90
32877;DHT22;19226;51.600;8.034;2023-10-09T10:38:32;19.60;99.90
32877;DHT22;19226;51.600;8.034;2023-10-09T10:41:19;19.70;99.90
32877;DHT22;19226;51.600;8.034;2023-10-09T10:44:06;19.70;99.90
32877;DHT22;19226;51.600;8.034;2023-10-09T10:47:11;19.80;99.90
32877;DHT22;19226;51.600;8.034;2023-10-09T10:50:09;19.80;99.90
32877;DHT22;19226;51.600;8.034;2023-10-09T10:53:12;19.80;99.90
32877;DHT22;19226;51.600;8.034;2023-10-09T10:56:01;19.80;99.90
32877;DHT22;19226;51.600;8.034;2023-10-09T10:58:58;19.80;99.90
32877;DHT22;19226;51.600;8.034;2023-10-09T11:01:48;19.90;99.90
32877;DHT22;19226;51.600;8.034;2023-10-09T11:04:46;19.90;99.90
32877;DHT22;19226;51.600;8.034;2023-10-09T11:07:37;20.00;99.90
32877;DHT22;19226;51.600;8.034;2023-10-09T11:10:23;20.00;99.90
32877;DHT22;19226;51.600;8.034;2023-10-09T11:13:23;20.00;99.90
32877;DHT22;19226;51.600;8.034;2023-10-09T11:16:19;20.10;99.90
32877;DHT22;19226;51.600;8.034;2023-10-09T11:19:24;20.10;99.90
32877;DHT22;19226;51.600;8.034;2023-10-09T11:22:11;20.20;99.90
32877;DHT22;19226;51.600;8.034;2023-10-09T11:24:56;20.20;99.90
32877;DHT22;19226;51.600;8.034;2023-10-09T11:27:56;20.20;99.90
32877;DHT22;19226;51.600;8.034;2023-10-09T11:30:40;20.30;99.90
32877;DHT22;19226;51.600;8.034;2023-10-09T11:33:25;20.40;99.90
32877;DHT22;19226;51.600;8.034;2023-10-09T11:36:14;20.40;99.90
32877;DHT22;19226;51.600;8.034;2023-10-09T11:38:59;20.40;99.90
32877;DHT22;19226;51.600;8.034;2023-10-09T11:42:02;20.40;99.90
32877;DHT22;19226;51.600;8.034;2023-10-09T11:44:49;20.50;99.90
32877;DHT22;19226;51.600;8.034;2023-10-09T11:47:39;20.50;99.90
32877;DHT22;19226;51.600;8.034;2023-10-09T11:50:46;20.50;99.90
32877;DHT22;19226;51.600;8.034;2023-10-09T11:53:41;20.50;99.90
32877;DHT22;19226;51.600;8.034;2023-10-09T11:56:30;20.50;99.90
32877;DHT22;19226;51.600;8.034;2023-10-09T11:59:16;20.50;99.90
32877;DHT22;19226;51.600;8.034;2023-10-09T12:02:01;20.50;99.90
32877;DHT22;19226;51.600;8.034;2023-10-09T12:04:51;20.50;99.90
32877;DHT22;19226;51.600;8.034;2023-10-09T12:07:36;20.50;99.90
32877;DHT22;19226;51.600;8.034;2023-10-09T12:10:23;20.60;99.90
32877;DHT22;19226;51.600;8.034;2023-10-09T12:13:12;20.60;99.90
32877;DHT22;19226;51.600;8.034;2023-10-09T12:15:59;20.60;99.90
32877;DHT22;19226;51.600;8.034;2023-10-09T12:18:44;20.70;99.90
32877;DHT22;19226;51.600;8.034;2023-10-09T12:21:37;20.70;99.90
32877;DHT22;19226;51.600;8.034;2023-10-09T12:24:23;20.70;99.90
32877;DHT22;19226;51.600;8.034;2023-10-09T12:27:07;20.70;99.90
32877;DHT22;19226;51.600;8.034;2023-10-09T12:29:55;20.80;99.90
32877;DHT22;19226;51.600;8.034;2023-10-09T12:32:41;20.80;99.90
32877;DHT22;19226;51.600;8.034;2023-10-09T12:35:26;20.90;99.90
32877;DHT22;19226;51.600;8.034;2023-10-09T12:38:12;20.90;99.90
32877;DHT22;19226;51.600;8.034;2023-10-09T12:41:07;20.90;99.90
32877;DHT22;19226;51.600;8.034;2023-10-09T12:44:17;20.90;99.90
32877;DHT22;19226;51.600;8.034;2023-10-09T12:47:03;21.00;99.90
32877;DHT22;19226;51.600;8.034;2023-10-09T12:49:48;21.00;99.90
32877;DHT22;19226;51.600;8.034;2023-10-09T12:52:33;21.00;99.90
32877;DHT22;19226;51.600;8.034;2023-10-09T12:55:21;20.90;99.90
32877;DHT22;19226;51.600;8.034;2023-10-09T12:58:07;20.90;99.90
32877;DHT22;19226;51.600;8.034;2023-10-09T13:00:52;21.00;99.90
32877;DHT22;19226;51.600;8.034;2023-10-09T13:03:37;21.00;99.90
32877;DHT22;19226;51.600;8.034;2023-10-09T13:06:24;20.90;99.90
32877;DHT22;19226;51.600;8.034;2023-10-09T13:09:10;20.90;99.90
32877;DHT22;19226;51.600;8.034;2023-10-09T13:11:55;21.00;99.90
32877;DHT22;19226;51.600;8.034;2023-10-09T13:14:44;21.00;99.90
32877;DHT22;19226;51.600;8.034;2023-10-09T13:17:29;21.10;99.90
32877;DHT22;19226;51.600;8.034;2023-10-09T13:20:14;21.10;99.90
32877;DHT22;19226;51.600;8.034;2023-10-09T13:22:59;21.10;99.90
32877;DHT22;19226;51.600;8.034;2023-10-09T13:25:43;21.10;99.90
32877;DHT22;19226;51.600;8.034;2023-10-09T13:28:28;21.10;99.90
32877;DHT22;19226;51.600;8.034;2023-10-09T13:31:14;21.10;99.90
32877;DHT22;19226;51.600;8.034;2023-10-09T13:33:59;21.00;99.90
32877;DHT22;19226;51.600;8.034;2023-10-09T13:36:45;21.00;99.90
32877;DHT22;19226;51.600;8.034;2023-10-09T13:39:37;21.00;99.90
32877;DHT22;19226;51.600;8.034;2023-10-09T13:42:24;21.00;99.90
32877;DHT22;19226;51.600;8.034;2023-10-09T13:45:12;21.00;99.90
32877;DHT22;19226;51.600;8.034;2023-10-09T13:48:00;20.90;99.90
32877;DHT22;19226;51.600;8.034;2023-10-09T13:50:47;20.90;99.90
32877;DHT22;19226;51.600;8.034;2023-10-09T13:53:33;20.90;99.90
32877;DHT22;19226;51.600;8.034;2023-10-09T13:56:20;20.80;99.90
32877;DHT22;19226;51.600;8.034;2023-10-09T13:59:05;20.80;99.90
32877;DHT22;19226;51.600;8.034;2023-10-09T14:01:55;20.80;99.90
32877;DHT22;19226;51.600;8.034;2023-10-09T14:04:40;20.80;99.90
32877;DHT22;19226;51.600;8.034;2023-10-09T14:07:24;20.80;99.90
32877;DHT22;19226;51.600;8.034;2023-10-09T14:10:09;20.70;99.90
32877;DHT22;19226;51.600;8.034;2023-10-09T14:13:05;20.80;99.90
32877;DHT22;19226;51.600;8.034;2023-10-09T14:15:57;20.70;99.90
32877;DHT22;19226;51.600;8.034;2023-10-09T14:18:44;20.70;99.90
32877;DHT22;19226;51.600;8.034;2023-10-09T14:21:34;20.60;99.90
32877;DHT22;19226;51.600;8.034;2023-10-09T14:24:21;20.60;99.90
32877;DHT22;19226;51.600;8.034;2023-10-09T14:27:19;20.60;99.90
32877;DHT22;19226;51.600;8.034;2023-10-09T14:30:25;20.60;99.90
32877;DHT22;19226;51.600;8.034;2023-10-09T14:33:18;20.50;99.90
32877;DHT22;19226;51.600;8.034;2023-10-09T14:36:07;20.60;99.90
32877;DHT22;19226;51.600;8.034;2023-10-09T14:38:52;20.60;99.90
32877;DHT22;19226;51.600;8.034;2023-10-09T14:41:40;20.70;99.90
32877;DHT22;19226;51.600;8.034;2023-10-09T14:44:28;20.70;99.90
32877;DHT22;19226;51.600;8.034;2023-10-09T14:47:14;20.70;99.90
32877;DHT22;19226;51.600;8.034;2023-10-09T14:49:59;20.70;99.90
32877;DHT22;19226;51.600;8.034;2023-10-09T14:52:45;20.70;99.90
32877;DHT22;19226;51.600;8.034;2023-10-09T14:55:30;20.60;99.90
32877;DHT22;19226;51.600;8.034;2023-10-09T14:58:16;20.60;99.90
32877;DHT22;19226;51.600;8.034;2023-10-09T15:01:11;20.60;99.90
32877;DHT22;19226;51.600;8.034;2023-10-09T15:03:58;20.60;99.90
32877;DHT22;19226;51.600;8.034;2023-10-09T15:06:44;20.60;99.90
32877;DHT22;19226;51.600;8.034;2023-10-09T15:09:28;20.60;99.90
32877;DHT22;19226;51.600;8.034;2023-10-09T15:12:15;20.50;99.90
32877;DHT22;19226;51.600;8.034;2023-10-09T15:15:06;20.50;99.90
32877;DHT22;19226;51.600;8.034;2023-10-09T15:18:10;20.40;99.90
32877;DHT22;19226;51.600;8.034;2023-10-09T15:20:57;20.40;99.90
32877;DHT22;19226;51.600;8.034;2023-10-09T15:23:45;20.40;99.90
32877;DHT22;19226;51.600;8.034;2023-10-09T15:26:29;20.40;99.90
32877;DHT22;19226;51.600;8.034;2023-10-09T15:29:16;20.40;99.90
32877;DHT22;19226;51.600;8.034;2023-10-09T15:32:03;20.40;99.90
32877;DHT22;19226;51.600;8.034;2023-10-09T15:34:59;20.40;99.90
32877;DHT22;19226;51.600;8.034;2023-10-09T15:37:46;20.40;99.90
32877;DHT22;19226;51.600;8.034;2023-10-09T15:40:31;20.40;99.90
32877;DHT22;19226;51.600;8.034;2023-10-09T15:43:19;20.40;99.90
32877;DHT22;19226;51.600;8.034;2023-10-09T15:46:07;20.40;99.90
32877;DHT22;19226;51.600;8.034;2023-10-09T15:48:58;20.30;99.90
32877;DHT22;19226;51.600;8.034;2023-10-09T15:51:43;20.30;99.90
32877;DHT22;19226;51.600;8.034;2023-10-09T15:54:28;20.30;99.90
32877;DHT22;19226;51.600;8.034;2023-10-09T15:57:12;20.30;99.90
32877;DHT22;19226;51.600;8.034;2023-10-09T15:59:57;20.30;99.90
32877;DHT22;19226;51.600;8.034;2023-10-09T16:02:42;20.30;99.90
32877;DHT22;19226;51.600;8.034;2023-10-09T16:05:27;20.30;99.90
32877;DHT22;19226;51.600;8.034;2023-10-09T16:08:12;20.30;99.90
32877;DHT22;19226;51.600;8.034;2023-10-09T16:10:56;20.30;99.90
32877;DHT22;19226;51.600;8.034;2023-10-09T16:13:42;20.20;99.90
32877;DHT22;19226;51.600;8.034;2023-10-09T16:16:30;20.30;99.90
32877;DHT22;19226;51.600;8.034;2023-10-09T16:19:15;20.20;99.90
32877;DHT22;19226;51.600;8.034;2023-10-09T16:21:59;20.30;99.90
32877;DHT22;19226;51.600;8.034;2023-10-09T16:24:48;20.20;99.90
32877;DHT22;19226;51.600;8.034;2023-10-09T16:27:37;20.20;99.90
32877;DHT22;19226;51.600;8.034;2023-10-09T16:30:30;20.10;99.90
32877;DHT22;19226;51.600;8.034;2023-10-09T16:33:15;20.10;99.90
32877;DHT22;19226;51.600;8.034;2023-10-09T16:36:00;20.10;99.90
32877;DHT22;19226;51.600;8.034;2023-10-09T16:38:44;20.10;99.90
32877;DHT22;19226;51.600;8.034;2023-10-09T16:41:31;20.10;99.90
32877;DHT22;19226;51.600;8.034;2023-10-09T16:44:21;20.10;99.90
32877;DHT22;19226;51.600;8.034;2023-10-09T16:47:06;20.10;99.90
32877;DHT22;19226;51.600;8.034;2023-10-09T16:49:51;20.10;99.90
32877;DHT22;19226;51.600;8.034;2023-10-09T16:52:36;20.10;99.90
32877;DHT22;19226;51.600;8.034;2023-10-09T16:55:24;20.10;99.90
32877;DHT22;19226;51.600;8.034;2023-10-09T16:58:12;20.10;99.90
32877;DHT22;19226;51.600;8.034;2023-10-09T17:00:58;20.10;99.90
32877;DHT22;19226;51.600;8.034;2023-10-09T17:03:43;20.10;99.90
32877;DHT22;19226;51.600;8.034;2023-10-09T17:06:27;20.10;99.90
32877;DHT22;19226;51.600;8.034;2023-10-09T17:09:13;20.00;99.90
32877;DHT22;19226;51.600;8.034;2023-10-09T17:11:58;20.00;99.90
32877;DHT22;19226;51.600;8.034;2023-10-09T17:14:44;20.00;99.90
32877;DHT22;19226;51.600;8.034;2023-10-09T17:17:29;20.00;99.90
32877;DHT22;19226;51.600;8.034;2023-10-09T17:20:17;20.00;99.90
32877;DHT22;19226;51.600;8.034;2023-10-09T17:23:01;20.00;99.90
32877;DHT22;19226;51.600;8.034;2023-10-09T17:25:46;20.00;99.90
32877;DHT22;19226;51.600;8.034;2023-10-09T17:28:30;19.90;99.90
32877;DHT22;19226;51.600;8.034;2023-10-09T17:31:15;20.00;99.90
32877;DHT22;19226;51.600;8.034;2023-10-09T17:34:10;19.90;99.90
32877;DHT22;19226;51.600;8.034;2023-10-09T17:36:55;19.90;99.90
32877;DHT22;19226;51.600;8.034;2023-10-09T17:39:41;19.90;99.90
32877;DHT22;19226;51.600;8.034;2023-10-09T17:42:26;19.90;99.90
32877;DHT22;19226;51.600;8.034;2023-10-09T17:45:11;19.90;99.90
32877;DHT22;19226;51.600;8.034;2023-10-09T17:47:58;19.90;99.90
32877;DHT22;19226;51.600;8.034;2023-10-09T17:50:46;19.80;99.90
32877;DHT22;19226;51.600;8.034;2023-10-09T17:53:30;19.80;99.90
32877;DHT22;19226;51.600;8.034;2023-10-09T17:56:15;19.70;99.90
32877;DHT22;19226;51.600;8.034;2023-10-09T17:59:02;19.60;99.90
32877;DHT22;19226;51.600;8.034;2023-10-09T18:01:47;19.60;99.90
32877;DHT22;19226;51.600;8.034;2023-10-09T18:04:32;19.60;99.90
32877;DHT22;19226;51.600;8.034;2023-10-09T18:07:20;19.60;99.90
32877;DHT22;19226;51.600;8.034;2023-10-09T18:10:05;19.60;99.90